Time;durP1;ratioP1;P1;durP2;ratioP2;P2;SDS_P1;SDS_P2;PMS_P1;PMS_P2;Temp;Humidity;BMP_temperature;BMP_pressure;BME280_temperature;BME280_humidity;BME280_pressure;Samples;Min_cycle;Max_cycle;Signal;HPM_P1;HPM_P2
2021/12/09 00:01:58;;;;;;;23.10;17.70;;;4.70;99.90;;;;;;5090943;28;20273;-65
2021/12/09 00:04:30;;;;;;;22.90;17.95;;;4.70;99.90;;;;;;5091409;28;20285;-66
2021/12/09 00:07:00;;;;;;;19.08;16.48;;;4.80;99.90;;;;;;5093742;28;20258;-66
2021/12/09 00:09:30;;;;;;;22.08;17.73;;;4.70;99.90;;;;;;5092610;28;20206;-66
2021/12/09 00:11:59;;;;;;;17.00;15.00;;;4.70;99.90;;;;;;5090105;28;20230;-66
2021/12/09 00:14:29;;;;;;;17.90;15.85;;;4.70;99.90;;;;;;5092191;28;20199;-66
2021/12/09 00:17:00;;;;;;;19.48;15.50;;;4.70;99.90;;;;;;5090103;28;20333;-65
2021/12/09 00:19:28;;;;;;;20.20;16.23;;;4.70;99.90;;;;;;5108619;28;20214;-66
2021/12/09 00:21:58;;;;;;;21.42;17.45;;;4.60;99.90;;;;;;5109238;28;20208;-66
2021/12/09 00:24:26;;;;;;;19.95;17.45;;;4.60;99.90;;;;;;5084603;28;20200;-66
2021/12/09 00:26:56;;;;;;;19.65;16.83;;;4.60;99.90;;;;;;5092046;28;20582;-66
2021/12/09 00:29:25;;;;;;;23.77;18.88;;;4.50;99.90;;;;;;5075018;28;20230;-65
2021/12/09 00:31:53;;;;;;;28.73;18.45;;;4.50;99.90;;;;;;5084818;28;20248;-65
2021/12/09 00:34:29;;;;;;;21.30;16.40;;;4.60;99.90;;;;;;5083624;28;20227;-65
2021/12/09 00:37:02;;;;;;;21.33;16.88;;;4.50;99.90;;;;;;5091247;28;20305;-65
2021/12/09 00:39:29;;;;;;;19.48;17.25;;;4.60;99.90;;;;;;5084287;28;20297;-65
2021/12/09 00:41:59;;;;;;;22.60;16.45;;;4.60;99.90;;;;;;5086559;28;20199;-65
2021/12/09 00:44:27;;;;;;;27.05;18.52;;;4.60;99.90;;;;;;5090246;28;20285;-65
2021/12/09 00:46:54;;;;;;;22.67;17.25;;;4.60;99.90;;;;;;5091509;28;20219;-65
2021/12/09 00:49:22;;;;;;;20.77;16.05;;;4.60;99.90;;;;;;5100389;28;20276;-65
2021/12/09 00:51:50;;;;;;;17.67;15.25;;;4.70;99.90;;;;;;5086055;28;20219;-65
2021/12/09 00:54:18;;;;;;;20.25;15.75;;;4.70;99.90;;;;;;5075895;28;20208;-66
2021/12/09 00:56:46;;;;;;;21.13;17.52;;;4.60;99.90;;;;;;5081896;28;20298;-65
2021/12/09 00:59:15;;;;;;;22.17;17.27;;;4.60;99.90;;;;;;5088176;28;20259;-65
2021/12/09 01:01:43;;;;;;;20.05;14.65;;;4.60;99.90;;;;;;5090028;28;20207;-65
2021/12/09 01:04:12;;;;;;;19.23;16.83;;;4.60;99.90;;;;;;5076471;28;20219;-66
2021/12/09 01:06:40;;;;;;;21.90;17.05;;;4.60;99.90;;;;;;5082822;28;20741;-66
2021/12/09 01:09:08;;;;;;;21.60;16.00;;;4.60;99.90;;;;;;5084063;28;20555;-65
2021/12/09 01:11:36;;;;;;;20.25;17.00;;;4.60;99.90;;;;;;5091128;28;20252;-65
2021/12/09 01:14:04;;;;;;;22.02;18.23;;;4.60;99.90;;;;;;5077607;28;20227;-64
2021/12/09 01:16:33;;;;;;;24.02;19.27;;;4.50;99.90;;;;;;5100056;22;20554;-61
2021/12/09 01:19:01;;;;;;;23.70;19.90;;;4.50;99.90;;;;;;5056482;28;20253;-61
2021/12/09 01:21:30;;;;;;;24.98;20.67;;;4.40;99.90;;;;;;5057478;28;20306;-60
2021/12/09 01:23:57;;;;;;;23.35;19.50;;;4.40;99.90;;;;;;5056347;28;20310;-58
2021/12/09 01:26:27;;;;;;;25.75;20.35;;;4.30;99.90;;;;;;5058278;28;20775;-60
2021/12/09 01:28:59;;;;;;;26.08;21.17;;;4.30;99.90;;;;;;5055352;28;20285;-61
2021/12/09 01:31:31;;;;;;;22.58;19.33;;;4.30;99.90;;;;;;5055600;28;20409;-57
2021/12/09 01:34:02;;;;;;;20.65;18.45;;;4.30;99.90;;;;;;5054057;28;20234;-61
2021/12/09 01:36:31;;;;;;;20.08;17.90;;;4.20;99.90;;;;;;5055532;28;20247;-60
2021/12/09 01:38:59;;;;;;;21.00;18.40;;;4.20;99.90;;;;;;5054998;28;20332;-60
2021/12/09 01:41:27;;;;;;;19.75;17.58;;;4.20;99.90;;;;;;5058116;28;20255;-59
2021/12/09 01:43:55;;;;;;;21.67;18.20;;;4.20;99.90;;;;;;5056301;28;20286;-57
2021/12/09 01:46:23;;;;;;;18.70;15.30;;;4.10;99.90;;;;;;5055923;28;20296;-60
2021/12/09 01:48:52;;;;;;;22.02;16.50;;;4.00;99.90;;;;;;5056426;28;20285;-59
2021/12/09 01:51:22;;;;;;;20.00;15.38;;;4.00;99.90;;;;;;5054787;28;20278;-57
2021/12/09 01:53:50;;;;;;;14.75;13.23;;;3.90;99.90;;;;;;5056372;28;20733;-59
2021/12/09 01:56:23;;;;;;;16.27;14.05;;;3.90;99.90;;;;;;5055017;28;20234;-60
2021/12/09 01:58:52;;;;;;;17.48;13.52;;;3.80;99.90;;;;;;5056365;28;20230;-60
2021/12/09 02:01:20;;;;;;;14.48;11.40;;;3.80;99.90;;;;;;5054590;28;20219;-57
2021/12/09 02:03:49;;;;;;;11.23;10.23;;;3.70;99.90;;;;;;5055172;28;20203;-57
2021/12/09 02:06:17;;;;;;;13.07;11.10;;;3.70;99.90;;;;;;5054271;28;20210;-57
2021/12/09 02:08:47;;;;;;;15.38;10.90;;;3.70;99.90;;;;;;5055356;28;20208;-59
2021/12/09 02:11:15;;;;;;;15.20;11.07;;;3.70;99.90;;;;;;5054946;28;20203;-59
2021/12/09 02:13:43;;;;;;;11.68;9.52;;;3.70;99.90;;;;;;5055951;28;20302;-58
2021/12/09 02:16:13;;;;;;;12.60;8.73;;;3.60;99.90;;;;;;5058102;28;20668;-59
2021/12/09 02:18:41;;;;;;;12.65;10.05;;;3.60;99.90;;;;;;5056334;28;20218;-60
2021/12/09 02:21:14;;;;;;;12.02;9.18;;;3.60;99.90;;;;;;5060546;28;20311;-60
2021/12/09 02:23:46;;;;;;;14.65;9.80;;;3.60;99.90;;;;;;5054093;28;20284;-57
2021/12/09 02:26:15;;;;;;;11.52;9.23;;;3.60;99.90;;;;;;5056244;28;20218;-58
2021/12/09 02:28:44;;;;;;;16.02;10.18;;;3.50;99.90;;;;;;5054720;28;20257;-56
2021/12/09 02:31:13;;;;;;;14.82;11.25;;;3.50;99.90;;;;;;5056944;28;20200;-60
2021/12/09 02:33:41;;;;;;;14.98;11.80;;;3.50;99.90;;;;;;5054703;28;20203;-59
2021/12/09 02:36:11;;;;;;;14.43;10.40;;;3.40;99.90;;;;;;5054501;28;20195;-59
2021/12/09 02:38:43;;;;;;;11.70;9.50;;;3.30;99.90;;;;;;5054498;28;20808;-60
2021/12/09 02:41:15;;;;;;;12.57;9.40;;;3.30;99.90;;;;;;5056661;28;20306;-60
2021/12/09 02:43:45;;;;;;;12.65;8.85;;;3.40;99.90;;;;;;5053973;28;20242;-61
2021/12/09 02:46:13;;;;;;;10.88;7.65;;;3.40;99.90;;;;;;5054198;28;20236;-60
2021/12/09 02:48:41;;;;;;;10.48;8.80;;;3.30;99.90;;;;;;5054143;28;20209;-59
2021/12/09 02:51:11;;;;;;;10.55;8.52;;;3.40;99.90;;;;;;5055299;28;20223;-58
2021/12/09 02:53:40;;;;;;;12.68;7.57;;;3.40;99.90;;;;;;5058624;28;20235;-60
2021/12/09 02:56:08;;;;;;;11.63;6.60;;;3.30;99.90;;;;;;5057972;28;20223;-59
2021/12/09 02:58:36;;;;;;;9.63;5.82;;;3.30;99.90;;;;;;5081508;28;20795;-60
2021/12/09 03:01:12;;;;;;;6.93;5.88;;;3.30;99.90;;;;;;5084922;28;20264;-59
2021/12/09 03:03:46;;;;;;;9.25;7.28;;;3.30;99.90;;;;;;5083952;28;20202;-61
2021/12/09 03:06:15;;;;;;;7.95;7.15;;;3.30;99.90;;;;;;5076616;28;20203;-61
2021/12/09 03:08:44;;;;;;;9.98;8.07;;;3.30;99.90;;;;;;5081488;28;20230;-60
2021/12/09 03:11:14;;;;;;;9.10;7.47;;;3.20;99.90;;;;;;5062945;28;20271;-60
2021/12/09 03:13:45;;;;;;;7.47;6.72;;;3.30;99.90;;;;;;5055485;28;20230;-59
2021/12/09 03:16:14;;;;;;;10.95;6.63;;;3.30;99.90;;;;;;5054087;28;20204;-59
2021/12/09 03:18:43;;;;;;;9.55;6.95;;;3.30;99.90;;;;;;5069901;28;20245;-59
2021/12/09 03:21:18;;;;;;;8.70;7.22;;;3.30;99.90;;;;;;5059137;28;20235;-58
2021/12/09 03:23:46;;;;;;;8.07;6.50;;;3.30;99.90;;;;;;5050908;28;20216;-59
2021/12/09 03:26:17;;;;;;;10.20;6.65;;;3.20;99.90;;;;;;5084201;28;20203;-59
2021/12/09 03:28:45;;;;;;;8.48;7.13;;;3.20;99.90;;;;;;5077167;28;20196;-59
2021/12/09 03:31:13;;;;;;;6.68;5.90;;;3.10;99.90;;;;;;5073811;28;20211;-59
2021/12/09 03:33:41;;;;;;;11.43;7.40;;;3.10;99.90;;;;;;5073721;28;20199;-59
2021/12/09 03:36:09;;;;;;;6.85;6.15;;;3.10;99.90;;;;;;5062998;28;20219;-58
2021/12/09 03:38:38;;;;;;;8.63;6.32;;;3.10;99.90;;;;;;5072277;28;20282;-59
2021/12/09 03:41:07;;;;;;;8.18;6.88;;;3.10;99.90;;;;;;5073318;28;20212;-59
2021/12/09 03:43:36;;;;;;;8.20;6.35;;;3.10;99.90;;;;;;5073695;28;20281;-59
2021/12/09 03:46:04;;;;;;;6.88;6.25;;;3.10;99.90;;;;;;5073641;28;20274;-59
2021/12/09 03:48:33;;;;;;;6.78;5.70;;;3.10;99.90;;;;;;5081857;28;20572;-59
2021/12/09 03:51:02;;;;;;;5.40;4.85;;;3.10;99.90;;;;;;5087953;28;20688;-59
2021/12/09 03:53:30;;;;;;;10.13;5.72;;;3.10;99.90;;;;;;5093715;28;20277;-58
2021/12/09 03:55:59;;;;;;;6.88;4.97;;;3.20;99.90;;;;;;5082013;28;20274;-58
2021/12/09 03:58:28;;;;;;;6.47;4.85;;;3.20;99.90;;;;;;5073451;28;20277;-59
2021/12/09 04:00:56;;;;;;;6.05;4.68;;;3.20;99.90;;;;;;5073112;28;20574;-59
2021/12/09 04:03:24;;;;;;;11.57;6.15;;;3.20;99.90;;;;;;5072577;28;20282;-59
2021/12/09 04:05:52;;;;;;;6.53;5.10;;;3.20;99.90;;;;;;5072885;28;20227;-59
2021/12/09 04:08:21;;;;;;;9.73;5.13;;;3.30;99.90;;;;;;5073303;28;20219;-59
2021/12/09 04:10:50;;;;;;;6.15;4.55;;;3.20;99.90;;;;;;5072602;28;20281;-60
2021/12/09 04:13:20;;;;;;;10.82;5.20;;;3.30;99.90;;;;;;5072895;28;20707;-59
2021/12/09 04:15:48;;;;;;;5.13;4.65;;;3.30;99.90;;;;;;5073217;28;20554;-59
2021/12/09 04:18:16;;;;;;;7.65;5.53;;;3.40;99.90;;;;;;5073304;28;20234;-59
2021/12/09 04:20:44;;;;;;;7.68;4.85;;;3.40;99.90;;;;;;5084509;28;20585;-58
2021/12/09 04:23:13;;;;;;;4.53;3.83;;;3.40;99.90;;;;;;5092981;28;20753;-59
2021/12/09 04:25:41;;;;;;;7.40;4.72;;;3.40;99.90;;;;;;5082996;28;20273;-59
2021/12/09 04:28:09;;;;;;;5.93;5.03;;;3.40;99.90;;;;;;5081225;28;20239;-59
2021/12/09 04:30:40;;;;;;;10.23;4.97;;;3.40;99.90;;;;;;5077307;28;20626;-60
2021/12/09 04:33:08;;;;;;;9.05;4.03;;;3.40;99.90;;;;;;5081209;28;20274;-58
2021/12/09 04:35:36;;;;;;;6.20;3.78;;;3.40;99.90;;;;;;5079792;28;20213;-60
2021/12/09 04:38:04;;;;;;;6.95;4.55;;;3.40;99.90;;;;;;5068362;28;20242;-60
2021/12/09 04:40:32;;;;;;;8.43;4.85;;;3.40;99.90;;;;;;5071692;28;20298;-60
2021/12/09 04:43:00;;;;;;;6.47;4.38;;;3.50;99.90;;;;;;5072330;28;20242;-60
2021/12/09 04:45:30;;;;;;;8.13;4.82;;;3.40;99.90;;;;;;5072399;28;20199;-60
2021/12/09 04:47:59;;;;;;;7.25;4.35;;;3.40;99.90;;;;;;5072284;28;20635;-60
2021/12/09 04:50:27;;;;;;;10.65;5.13;;;3.30;99.90;;;;;;5059757;28;20660;-59
2021/12/09 04:52:55;;;;;;;6.55;4.70;;;3.30;99.90;;;;;;5063600;28;20687;-58
2021/12/09 04:55:24;;;;;;;9.15;6.10;;;3.20;99.90;;;;;;5052273;28;20283;-59
2021/12/09 04:57:52;;;;;;;11.15;5.85;;;3.20;99.90;;;;;;5065766;28;20246;-60
2021/12/09 05:00:23;;;;;;;5.85;4.95;;;3.10;99.90;;;;;;5072113;28;20609;-59
2021/12/09 05:03:02;;;;;;;11.05;6.22;;;3.10;99.90;;;;;;5071577;28;20650;-58
2021/12/09 05:05:37;;;;;;;9.05;5.75;;;3.10;99.90;;;;;;5075574;28;20264;-60
2021/12/09 05:08:06;;;;;;;9.05;6.15;;;3.00;99.90;;;;;;5078228;28;20651;-58
2021/12/09 05:10:49;;;;;;;5.78;4.85;;;3.00;99.90;;;;;;5083670;28;20198;-60
2021/12/09 05:13:18;;;;;;;7.97;5.82;;;3.00;99.90;;;;;;5068887;28;20229;-60
2021/12/09 05:15:47;;;;;;;8.02;6.70;;;2.90;99.90;;;;;;5079354;28;20277;-60
2021/12/09 05:18:16;;;;;;;18.85;6.63;;;2.90;99.90;;;;;;5075078;28;20766;-59
2021/12/09 05:20:46;;;;;;;6.93;5.43;;;2.90;99.90;;;;;;5077941;28;20222;-59
2021/12/09 05:23:16;;;;;;;7.32;5.93;;;2.80;99.90;;;;;;5076968;28;20681;-59
2021/12/09 05:25:44;;;;;;;8.77;6.18;;;2.80;99.90;;;;;;5081972;28;20751;-59
2021/12/09 05:28:15;;;;;;;8.63;6.20;;;2.80;99.90;;;;;;5078346;28;20298;-59
2021/12/09 05:33:27;;;;;;;10.27;7.20;;;2.70;99.90;;;;;;5082770;28;20203;-59
2021/12/09 05:35:57;;;;;;;8.25;6.35;;;2.70;99.90;;;;;;5075697;28;20252;-60
2021/12/09 05:38:26;;;;;;;9.02;6.50;;;2.70;99.90;;;;;;5072552;28;20818;-60
2021/12/09 05:40:54;;;;;;;7.57;6.50;;;2.70;99.90;;;;;;5083654;28;20229;-59
2021/12/09 05:43:22;;;;;;;9.57;5.50;;;2.70;99.90;;;;;;5073148;28;20239;-60
2021/12/09 05:45:51;;;;;;;10.38;5.38;;;2.70;99.90;;;;;;5085625;28;20282;-60
2021/12/09 05:48:19;;;;;;;8.98;6.38;;;2.60;99.90;;;;;;5072352;28;20217;-60
2021/12/09 05:50:48;;;;;;;9.30;6.85;;;2.70;99.90;;;;;;5091257;28;20278;-60
2021/12/09 05:53:17;;;;;;;7.40;5.25;;;2.70;99.90;;;;;;5091763;28;20282;-60
2021/12/09 05:55:45;;;;;;;9.65;5.85;;;2.70;99.90;;;;;;5091340;28;20229;-60
2021/12/09 05:58:14;;;;;;;9.93;6.30;;;2.70;99.90;;;;;;5091582;28;20786;-60
2021/12/09 06:00:49;;;;;;;11.85;6.85;;;2.70;99.90;;;;;;5091940;28;20193;-62
2021/12/09 06:03:19;;;;;;;9.98;7.47;;;2.60;99.90;;;;;;5084789;28;20226;-62
2021/12/09 06:05:48;;;;;;;9.15;7.30;;;2.60;99.90;;;;;;5071247;28;20664;-63
2021/12/09 06:08:18;;;;;;;11.15;7.28;;;2.60;99.90;;;;;;5078821;28;20226;-62
2021/12/09 06:10:46;;;;;;;12.65;7.20;;;2.70;99.90;;;;;;5063741;28;20294;-62
2021/12/09 06:13:14;;;;;;;13.02;7.00;;;2.60;99.90;;;;;;5073051;28;20598;-62
2021/12/09 06:15:42;;;;;;;9.48;6.30;;;2.60;99.90;;;;;;5069677;28;20228;-60
2021/12/09 06:18:10;;;;;;;8.35;7.43;;;2.50;99.90;;;;;;5071227;28;20242;-62
2021/12/09 06:20:38;;;;;;;10.00;5.60;;;2.50;99.90;;;;;;5070701;28;20223;-61
2021/12/09 06:23:05;;;;;;;11.23;6.32;;;2.50;99.90;;;;;;5078800;28;20684;-59
2021/12/09 06:25:35;;;;;;;11.93;6.95;;;2.50;99.90;;;;;;5074439;28;20234;-60
2021/12/09 06:28:03;;;;;;;10.23;7.00;;;2.50;99.90;;;;;;5073357;28;20305;-59
2021/12/09 06:30:31;;;;;;;14.02;6.80;;;2.50;99.90;;;;;;5073885;28;20636;-60
2021/12/09 06:32:59;;;;;;;9.05;6.90;;;2.50;99.90;;;;;;5067124;28;20227;-58
2021/12/09 06:35:27;;;;;;;8.57;6.65;;;2.60;99.90;;;;;;5066423;28;20821;-59
2021/12/09 06:37:55;;;;;;;8.07;6.05;;;2.50;99.90;;;;;;5075789;28;20219;-59
2021/12/09 06:40:24;;;;;;;7.43;6.38;;;2.60;99.90;;;;;;5069169;28;20265;-59
2021/12/09 06:42:54;;;;;;;10.93;7.03;;;2.60;99.90;;;;;;5085408;28;20302;-59
2021/12/09 06:45:24;;;;;;;8.73;5.82;;;2.60;99.90;;;;;;5076055;28;20289;-59
2021/12/09 06:47:53;;;;;;;9.18;6.65;;;2.60;99.90;;;;;;5082276;28;20223;-59
2021/12/09 06:50:24;;;;;;;10.25;6.78;;;2.60;99.90;;;;;;5081965;28;20776;-59
2021/12/09 06:52:52;;;;;;;10.35;7.32;;;2.60;99.90;;;;;;5086730;28;20283;-59
2021/12/09 06:55:20;;;;;;;28.00;12.55;;;2.60;99.90;;;;;;5079593;28;20230;-60
2021/12/09 06:57:49;;;;;;;23.60;14.57;;;3.80;99.90;;;;;;5077015;28;20254;-61
2021/12/09 07:00:21;;;;;;;23.92;16.55;;;6.70;99.90;;;;;;5069039;28;20204;-60
2021/12/09 07:02:49;;;;;;;19.02;13.73;;;8.10;99.90;;;;;;5070384;28;20250;-61
2021/12/09 07:05:18;;;;;;;21.92;13.45;;;8.50;99.90;;;;;;5073249;28;20202;-61
2021/12/09 07:07:46;;;;;;;18.30;12.20;;;7.90;99.90;;;;;;5073950;28;20303;-60
2021/12/09 07:10:15;;;;;;;14.68;9.70;;;7.30;99.90;;;;;;5066875;28;20622;-61
2021/12/09 07:12:43;;;;;;;11.88;7.13;;;8.30;99.90;;;;;;5084256;28;20249;-60
2021/12/09 07:15:14;;;;;;;11.93;6.25;;;9.50;99.90;;;;;;5064572;28;20300;-61
2021/12/09 07:17:43;;;;;;;10.43;5.20;;;9.80;99.90;;;;;;5106422;22;20333;-67
2021/12/09 07:20:16;;;;;;;9.48;4.95;;;10.00;99.90;;;;;;5088575;28;20261;-66
2021/12/09 07:22:45;;;;;;;8.23;5.05;;;9.60;99.90;;;;;;5088997;27;22087;-65
2021/12/09 07:25:13;;;;;;;13.85;4.78;;;9.30;99.90;;;;;;5091458;28;20554;-66
2021/12/09 07:27:41;;;;;;;10.60;5.57;;;9.70;99.90;;;;;;5089729;28;20254;-65
2021/12/09 07:30:12;;;;;;;6.60;4.38;;;9.90;99.90;;;;;;5109674;28;20194;-64
2021/12/09 07:32:40;;;;;;;5.45;4.50;;;8.90;99.90;;;;;;5111785;28;20607;-66
2021/12/09 07:35:11;;;;;;;6.53;5.10;;;7.60;99.90;;;;;;5112616;28;20284;-67
2021/12/09 07:37:40;;;;;;;7.30;5.78;;;6.50;99.90;;;;;;5111028;27;20709;-67
2021/12/09 07:40:11;;;;;;;9.93;5.90;;;5.70;99.90;;;;;;5123481;27;20194;-66
2021/12/09 07:42:39;;;;;;;6.68;5.55;;;5.20;99.90;;;;;;5135257;27;20193;-66
2021/12/09 07:45:09;;;;;;;11.40;6.97;;;4.60;99.90;;;;;;5134991;27;20232;-66
2021/12/09 07:47:36;;;;;;;11.32;6.55;;;4.20;99.90;;;;;;5135161;27;20298;-66
2021/12/09 07:50:07;;;;;;;8.40;6.38;;;3.90;99.90;;;;;;5135131;27;20232;-65
2021/12/09 07:52:36;;;;;;;8.38;7.05;;;3.50;99.90;;;;;;5135002;27;20291;-66
2021/12/09 07:55:05;;;;;;;12.48;7.95;;;3.10;99.90;;;;;;5114722;27;20237;-66
2021/12/09 07:57:35;;;;;;;8.82;7.35;;;2.90;99.90;;;;;;5093685;28;20234;-65
2021/12/09 08:00:05;;;;;;;8.68;7.55;;;2.70;99.90;;;;;;5094146;28;20195;-65
2021/12/09 08:02:33;;;;;;;8.52;7.68;;;2.60;99.90;;;;;;5093884;28;20232;-65
2021/12/09 08:05:01;;;;;;;13.15;8.55;;;2.50;99.90;;;;;;5093359;28;20269;-65
2021/12/09 08:07:29;;;;;;;11.05;9.48;;;2.50;99.90;;;;;;5096342;27;20214;-66
2021/12/09 08:09:59;;;;;;;10.65;9.57;;;2.40;99.90;;;;;;5121614;27;20242;-65
2021/12/09 08:12:27;;;;;;;14.07;10.70;;;2.40;99.90;;;;;;5134721;27;20689;-65
2021/12/09 08:15:16;;;;;;;12.50;9.18;;;2.40;99.90;;;;;;5134317;27;20185;-65
2021/12/09 08:18:01;;;;;;;12.32;9.02;;;2.30;99.90;;;;;;5133960;27;20268;-66
2021/12/09 08:20:30;;;;;;;10.20;9.23;;;2.30;99.90;;;;;;5134409;27;20224;-65
2021/12/09 08:22:58;;;;;;;10.57;9.50;;;2.30;99.90;;;;;;5134338;27;20217;-65
2021/12/09 08:25:27;;;;;;;12.52;10.80;;;2.30;99.90;;;;;;5105455;27;20309;-65
2021/12/09 08:27:55;;;;;;;11.32;10.15;;;2.20;99.90;;;;;;5093103;28;20301;-66
2021/12/09 08:30:26;;;;;;;15.35;12.05;;;2.20;99.90;;;;;;5093333;28;20230;-67
2021/12/09 08:33:14;;;;;;;15.60;11.65;;;2.20;99.90;;;;;;5102612;28;20730;-65
2021/12/09 08:35:42;;;;;;;13.07;11.50;;;2.20;99.90;;;;;;5113660;28;20289;-65
2021/12/09 08:38:10;;;;;;;12.65;10.73;;;2.10;99.90;;;;;;5116143;27;20258;-65
2021/12/09 08:40:42;;;;;;;12.63;11.27;;;2.30;99.90;;;;;;5124741;27;20227;-66
2021/12/09 08:43:10;;;;;;;12.98;11.57;;;2.30;99.90;;;;;;5093167;28;20286;-66
2021/12/09 08:45:38;;;;;;;12.13;10.95;;;2.30;99.90;;;;;;5092908;28;20255;-66
2021/12/09 08:48:07;;;;;;;15.52;13.23;;;2.30;99.90;;;;;;5092942;28;20222;-65
2021/12/09 08:50:35;;;;;;;14.40;12.20;;;2.20;99.90;;;;;;5092925;28;20194;-64
2021/12/09 08:53:07;;;;;;;17.90;10.93;;;2.20;99.90;;;;;;5092817;28;20226;-64
2021/12/09 08:55:35;;;;;;;14.88;11.10;;;2.30;99.90;;;;;;5092782;28;20203;-64
2021/12/09 08:58:06;;;;;;;13.05;11.50;;;2.20;99.90;;;;;;5092803;28;20721;-64
2021/12/09 09:00:35;;;;;;;13.77;12.25;;;2.20;99.90;;;;;;5092980;28;20217;-64
2021/12/09 09:03:04;;;;;;;14.43;12.60;;;2.20;99.90;;;;;;5092751;28;20191;-64
2021/12/09 09:05:35;;;;;;;17.08;12.20;;;2.20;99.90;;;;;;5092282;28;20218;-64
2021/12/09 09:08:04;;;;;;;13.40;12.02;;;2.30;99.90;;;;;;5104805;27;20328;-63
2021/12/09 09:10:35;;;;;;;17.73;13.65;;;2.30;99.90;;;;;;5125121;27;20383;-64
2021/12/09 09:13:05;;;;;;;16.50;12.90;;;2.30;99.90;;;;;;5133430;27;20194;-63
2021/12/09 09:15:36;;;;;;;15.88;13.40;;;2.30;99.90;;;;;;5129112;27;20217;-64
2021/12/09 09:18:05;;;;;;;16.17;12.75;;;2.40;99.90;;;;;;5112216;28;20283;-64
2021/12/09 09:20:38;;;;;;;15.00;13.50;;;2.40;99.90;;;;;;5112842;28;20605;-64
2021/12/09 09:23:09;;;;;;;14.90;13.13;;;2.40;99.90;;;;;;5112766;28;20197;-65
2021/12/09 09:25:37;;;;;;;14.32;12.95;;;2.40;99.90;;;;;;5112454;28;20252;-64
2021/12/09 09:28:07;;;;;;;18.77;13.02;;;2.50;99.90;;;;;;5112384;28;20266;-66
2021/12/09 09:30:38;;;;;;;12.40;11.10;;;2.50;99.90;;;;;;5112471;28;20229;-64
2021/12/09 09:33:08;;;;;;;11.85;10.65;;;2.50;99.90;;;;;;5111050;28;20194;-63
2021/12/09 09:35:37;;;;;;;13.00;11.10;;;2.50;99.90;;;;;;5112607;28;20213;-65
2021/12/09 09:38:06;;;;;;;14.63;10.63;;;2.60;99.90;;;;;;5114189;27;20574;-65
2021/12/09 09:40:40;;;;;;;12.32;10.80;;;2.70;99.90;;;;;;5124748;27;20205;-65
2021/12/09 09:43:27;;;;;;;10.35;9.32;;;2.70;99.90;;;;;;5114683;27;20220;-67
2021/12/09 09:46:03;;;;;;;12.07;9.95;;;2.70;99.90;;;;;;5112139;28;20698;-66
2021/12/09 09:48:31;;;;;;;13.20;10.50;;;2.70;99.90;;;;;;5112221;28;20218;-65
2021/12/09 09:51:00;;;;;;;12.07;9.88;;;2.80;99.90;;;;;;5087054;28;20285;-63
2021/12/09 09:53:28;;;;;;;12.60;9.90;;;3.00;99.90;;;;;;5095473;28;20243;-65
2021/12/09 09:55:56;;;;;;;10.48;9.45;;;3.10;99.90;;;;;;5112171;28;20272;-65
2021/12/09 09:58:26;;;;;;;11.68;10.50;;;3.50;99.90;;;;;;5111917;28;20245;-65
2021/12/09 10:00:54;;;;;;;10.68;8.90;;;3.50;99.90;;;;;;5112070;28;20225;-66
2021/12/09 10:03:29;;;;;;;10.30;8.65;;;3.80;99.90;;;;;;5110971;28;20194;-65
2021/12/09 10:05:59;;;;;;;9.40;8.10;;;4.10;99.90;;;;;;5104352;28;20205;-65
2021/12/09 10:08:27;;;;;;;10.85;8.45;;;4.20;99.90;;;;;;5109368;27;20240;-65
2021/12/09 10:10:55;;;;;;;12.80;8.23;;;4.10;99.90;;;;;;5125702;27;20243;-66
2021/12/09 10:13:30;;;;;;;9.23;7.60;;;4.10;99.90;;;;;;5132591;28;20220;-66
2021/12/09 10:16:04;;;;;;;13.82;9.05;;;3.90;99.90;;;;;;5132428;28;20189;-66
2021/12/09 10:18:35;;;;;;;11.52;8.38;;;4.10;99.90;;;;;;5131925;28;20294;-65
2021/12/09 10:21:04;;;;;;;10.52;7.30;;;4.10;99.90;;;;;;5118581;28;20190;-66
2021/12/09 10:23:35;;;;;;;13.02;8.10;;;4.10;99.90;;;;;;5111816;28;20678;-64
2021/12/09 10:26:12;;;;;;;14.35;9.32;;;4.00;99.90;;;;;;5111758;28;20263;-65
2021/12/09 10:28:45;;;;;;;8.38;7.32;;;3.90;99.90;;;;;;5111420;28;20693;-65
2021/12/09 10:31:16;;;;;;;12.00;8.10;;;3.80;99.90;;;;;;5111962;28;20221;-66
2021/12/09 10:34:11;;;;;;;9.00;8.13;;;3.80;99.90;;;;;;5111622;28;20229;-65
2021/12/09 10:36:48;;;;;;;8.77;7.85;;;3.80;99.90;;;;;;5094718;28;20224;-65
2021/12/09 10:39:22;;;;;;;10.75;7.32;;;3.80;99.90;;;;;;5101526;28;20756;-67
2021/12/09 10:41:51;;;;;;;8.75;7.05;;;3.80;99.90;;;;;;5108843;28;20205;-65
2021/12/09 10:44:32;;;;;;;6.93;6.28;;;3.80;99.90;;;;;;5111435;28;20281;-66
2021/12/09 10:47:08;;;;;;;8.50;7.25;;;4.00;99.90;;;;;;5110836;28;20737;-65
2021/12/09 10:49:47;;;;;;;10.40;7.20;;;4.10;99.90;;;;;;5111582;28;20757;-65
2021/12/09 10:52:36;;;;;;;12.30;7.10;;;4.20;99.90;;;;;;5111675;28;20239;-66
2021/12/09 10:55:10;;;;;;;7.25;6.15;;;4.30;99.90;;;;;;5111747;28;20218;-65
2021/12/09 10:57:39;;;;;;;7.53;6.15;;;4.50;99.90;;;;;;5095392;28;20217;-66
2021/12/09 11:00:22;;;;;;;8.10;5.20;;;4.50;99.90;;;;;;5091400;28;20195;-65
2021/12/09 11:03:10;;;;;;;6.82;5.30;;;4.60;99.90;;;;;;5091418;28;20221;-66
2021/12/09 11:05:42;;;;;;;13.85;5.45;;;4.70;99.90;;;;;;5090867;28;20246;-66
2021/12/09 11:08:16;;;;;;;9.63;5.80;;;4.80;99.90;;;;;;5090890;28;20672;-65
2021/12/09 11:10:47;;;;;;;7.15;5.40;;;4.90;99.90;;;;;;5120251;28;20197;-65
2021/12/09 11:13:18;;;;;;;5.80;5.18;;;4.90;99.90;;;;;;5112075;28;20194;-66
2021/12/09 11:15:58;;;;;;;20.45;12.70;;;5.10;99.90;;;;;;5115289;28;20252;-65
2021/12/09 11:18:35;;;;;;;16.48;9.98;;;5.40;99.90;;;;;;5114696;28;20671;-65
2021/12/09 11:21:10;;;;;;;9.43;6.80;;;5.80;99.90;;;;;;5115153;28;20216;-66
2021/12/09 11:23:44;;;;;;;12.80;8.23;;;5.70;99.90;;;;;;5114648;28;20189;-65
2021/12/09 11:26:30;;;;;;;10.23;7.78;;;5.60;99.90;;;;;;5114816;28;20787;-66
2021/12/09 11:29:00;;;;;;;18.10;9.98;;;5.40;99.90;;;;;;5114793;28;20320;-66
2021/12/09 11:31:33;;;;;;;9.30;6.97;;;5.40;99.90;;;;;;5112848;28;20190;-66
2021/12/09 11:34:09;;;;;;;13.25;8.10;;;5.20;99.90;;;;;;5114541;28;20630;-65
2021/12/09 11:36:53;;;;;;;13.50;8.18;;;5.30;99.90;;;;;;5114860;28;20268;-66
2021/12/09 11:39:28;;;;;;;10.52;7.45;;;5.20;99.90;;;;;;5117050;27;20263;-65
2021/12/09 11:42:15;;;;;;;11.10;7.00;;;5.10;99.90;;;;;;5128559;27;20193;-66
2021/12/09 11:45:05;;;;;;;15.20;8.73;;;5.00;99.90;;;;;;5134982;27;20205;-66
2021/12/09 11:47:35;;;;;;;12.40;9.55;;;4.90;99.90;;;;;;5134913;27;20278;-65
2021/12/09 11:50:11;;;;;;;15.10;11.07;;;4.90;99.90;;;;;;5134906;27;20189;-65
2021/12/09 11:52:39;;;;;;;13.13;9.25;;;4.80;99.90;;;;;;5099557;27;20206;-65
2021/12/09 11:55:09;;;;;;;16.95;10.48;;;4.80;99.90;;;;;;5075707;28;20218;-66
2021/12/09 11:57:40;;;;;;;11.07;7.25;;;4.70;99.90;;;;;;5093929;28;20253;-65
2021/12/09 12:06:47;;;;;;;13.02;8.50;;;4.70;99.90;;;;;;5093740;28;20668;-65
2021/12/09 12:12:40;;;;;;;6.90;4.60;;;4.50;99.90;;;;;;5109541;27;20186;-66
2021/12/09 12:15:33;;;;;;;7.60;4.95;;;4.50;99.90;;;;;;5114042;28;20218;-65
2021/12/09 12:18:21;;;;;;;7.25;5.28;;;4.40;99.90;;;;;;5113382;28;20273;-66
2021/12/09 12:21:03;;;;;;;8.52;4.38;;;4.40;99.90;;;;;;5114182;28;20194;-67
2021/12/09 12:23:35;;;;;;;8.43;5.00;;;4.40;99.90;;;;;;5113918;28;20232;-67
2021/12/09 12:29:26;;;;;;;10.63;6.00;;;4.30;99.90;;;;;;5093365;28;20324;-65
2021/12/09 12:35:14;;;;;;;8.80;6.07;;;4.20;99.90;;;;;;5087935;28;20236;-66
2021/12/09 12:40:36;;;;;;;7.28;5.75;;;4.20;99.90;;;;;;5121700;27;20194;-66
2021/12/09 12:43:09;;;;;;;8.38;5.60;;;4.30;99.90;;;;;;5133949;27;20197;-65
2021/12/09 12:45:52;;;;;;;10.98;5.75;;;4.30;99.90;;;;;;5133974;27;20243;-66
2021/12/09 12:51:52;;;;;;;9.32;5.18;;;4.40;99.90;;;;;;5091409;28;20297;-66
2021/12/09 12:54:30;;;;;;;9.68;5.28;;;4.50;99.90;;;;;;5113216;28;20221;-66
2021/12/09 12:57:01;;;;;;;10.95;6.05;;;4.40;99.90;;;;;;5113361;28;20218;-67
2021/12/09 12:59:32;;;;;;;7.63;5.10;;;4.50;99.90;;;;;;5112736;28;20221;-66
2021/12/09 13:02:51;;;;;;;9.50;5.70;;;4.50;99.90;;;;;;5107106;28;20237;-67
2021/12/09 13:11:14;;;;;;;10.00;5.40;;;4.60;99.90;;;;;;5114823;27;20664;-66
2021/12/09 13:13:52;;;;;;;7.10;4.88;;;4.60;99.90;;;;;;5112958;28;20747;-66
2021/12/09 13:16:28;;;;;;;10.63;5.63;;;4.60;99.90;;;;;;5113210;28;20247;-66
2021/12/09 13:19:10;;;;;;;8.80;5.47;;;4.50;99.90;;;;;;5116802;22;20648;-63
2021/12/09 13:21:48;;;;;;;11.23;6.43;;;4.50;99.90;;;;;;5092303;28;20226;-63
2021/12/09 13:24:38;;;;;;;9.57;5.40;;;4.60;99.90;;;;;;5092964;28;20285;-63
2021/12/09 13:27:29;;;;;;;8.95;5.30;;;4.60;99.90;;;;;;5092571;28;20214;-63
2021/12/09 13:30:10;;;;;;;10.40;5.07;;;4.60;99.90;;;;;;5072208;28;20691;-63
2021/12/09 13:35:46;;;;;;;6.55;4.90;;;4.60;99.90;;;;;;5065890;28;20625;-63
2021/12/09 13:46:58;;;;;;;8.93;4.75;;;4.50;99.90;;;;;;4990476;28;20677;-63
2021/12/09 13:49:40;;;;;;;9.25;4.93;;;4.50;99.90;;;;;;5062521;28;20238;-63
2021/12/09 13:54:57;;;;;;;10.75;5.95;;;4.60;99.90;;;;;;5072406;28;20278;-62